OIAI  Shahid Asyaee  Airport

Iran

Add Bookmark
ICAO OIAI
Type Airport
Status Operational
Latitude
32° 0' 8" N
32.002399
Longitude
49° 16' 13" E
49.270401
Local (DST + 5) UTC (GMT + 4)
May 25, 2015 01:47 May 25, 2015 09:17
Sunrise-Sunset Local UTC
Begin Civil Twilight 05:41 01:11
Sunrise 06:08 01:38
Sunset 08:11 15:41
End Civil Twilight 08:38 16:08
VFR
VFR
MVFR
MVFR
IFR
VFR
LIFR
VFR
Unknown
Unavailable

Current Weather

METAR Observed VFR
OIAI 241852Z 32004KT 9999 FEW040 33/05 Q1008 Sun, May 24, 2015 @ 18:52 UTC
(14 Hours, 25 Minutes ago)
Visual Flight Rules
Wind Visibility Clouds Conditions
320° at 4 knots (7 kph) 10 km or more
  • Few at 4,000 ft AGL
  • No significant weather
Temperatures Readings Precipitation
Current Temp
33°C
91°F
Dewpoint
5°C
41°F
Humidity 17%
Altimeter 29.76" Hg
Sea Level Pressure 1,008 mb
Field Elevation
372 m
1,220 ft
None Recorded

Additional weather within a 92.6km radius of OIAI

Map ICAO Location
OIAW 88.2km S/SW (213°)
VFR
VFR
MVFR
MVFR
IFR
VFR
LIFR
VFR
Unknown
Unavailable
-
-

CheckWX.com is intended as a tool to help pilots better visualize weather data. It is not intended as a substitute for an official weather briefing obtained from a Flight Service Station. CheckWX.com does not meet the FAA requirements for an official pre-flight weather briefing. Therefore, it's important that pilots still call and obtain an official FSS pre-flight weather briefing.

© 2007-2015 CheckWX.com
09:17:14 UTC